Chilmark, Massachusetts
Current Conditions -  °F | °C
As of 5:53 AM on Thursday 23 Oct 2014 (Local Time) from KMVY Reporting Station
Scattered Clouds Scattered Clouds  
Wind Chill: 58°   Ceiling: Unl
Heat Index: 58°   Visibility: 10mi
Dew Point: 57°   Wind: 8mph
Humidity: 97%   Direction: 50°NE
Pressure: 29.54"   Gusts: NA
Location:  41.34°N, 70.75°W
Report Text: KMVY 230953Z 05007KT 10SM SCT008 14/14 A2954 RMK AO2 RAB00E10 SLP002 P0000 T01440139
Loading
Personal Weather Stations






























Interactive Weather Map
Tropical Storm Tracking
New forecast layout! Learn more

10-Day Weather Forecast

Advertisements
Track Severe Weather on mobile